Terminal Aerodrome Forecast
Issued by NWS

Home | Current Version | Previous Version | Text Only | Print | Product List | Glossary On
Versions: 1 2 3 4 5 6 7 8 9 10 11 12 13 14 15 16 17 18 19 20
902
FTUS43 KLSX 240835 AAA
TAFUIN
TAF AMD
KUIN 240835Z 2409/2506 VRB03KT P6SM BKN120
     FM241600 06005KT P6SM SCT120=

USA.gov is the U.S. government's official web portal to all federal, state and local government web resources and services.